MSC Divina — 3FFA5 — position and weather

sailwx.info

Track history (hours):
 
Tides and Currents Weather Stations Pressure Air Temp Water Temp Dewpoint Dewpoint Depression Visibility Wind Speed Wind Dir Waves Ship Positions

MSC Divina

Last reported at 2014-Nov-23 01:33 UTC. Time now 2014-Nov-27 20:47 UTC.
Position N 25°43' W 080°03'.

Length 333 m; draft 8.7 m.

Type: Passenger vessel. MMSI: 373178000.

Date/timePositionNaut miles runAvg speedWind from/ knotsBaromVisibWave heightAir tempDewpointWater temp
2014-Nov-23 01:33N 25°43' W 080°03'8 6.2
2014-Nov-23 00:19N 25°47' W 080°10'0 0.0
2014-Nov-22 23:34N 25°47' W 080°10'0 0.0
2014-Nov-22 22:34N 25°47' W 080°10'0 0.0
2014-Nov-22 21:22N 25°47' W 080°10'0 0.0
2014-Nov-22 20:25N 25°47' W 080°10'0 0.0
2014-Nov-22 19:25N 25°47' W 080°10'0 0.0
2014-Nov-22 18:25N 25°47' W 080°10'0 0.0
2014-Nov-22 17:28N 25°47' W 080°10'0 0.0
2014-Nov-22 16:28N 25°47' W 080°10'0 0.0
2014-Nov-22 15:13N 25°47' W 080°10'0 0.0
2014-Nov-22 14:28N 25°47' W 080°10'0 0.0
2014-Nov-22 13:31N 25°47' W 080°10'0 0.0
2014-Nov-22 12:31N 25°47' W 080°10'0 0.0
2014-Nov-22 11:31N 25°47' W 080°10'0 0.3
2014-Nov-22 10:33N 25°47' W 080°11'5 5.5
2014-Nov-22 09:33N 25°46' W 080°05'1111.4
2014-Nov-22 08:33N 25°37' W 079°56'48915.8
2014-Nov-21 01:33N 20°37' W 086°56'6 6.1
2014-Nov-21 00:32N 20°31' W 086°57'0 0.0
2014-Nov-20 23:32N 20°31' W 086°57'0 0.0
2014-Nov-20 22:32N 20°31' W 086°57'0 0.0
2014-Nov-20 21:26N 20°31' W 086°57'0 0.0
2014-Nov-20 20:32N 20°31' W 086°57'0 0.0
2014-Nov-20 19:32N 20°31' W 086°57'0 0.0
2014-Nov-20 18:32N 20°31' W 086°57'0 0.0
2014-Nov-20 17:32N 20°31' W 086°57'0 0.0
2014-Nov-20 16:32N 20°31' W 086°57'0 0.0
2014-Nov-20 15:32N 20°31' W 086°57'4 4.1
2014-Nov-20 14:33N 20°30' W 087°02'  
Track history (hours):
 
Tides and Currents Weather Stations Pressure Air Temp Water Temp Dewpoint Dewpoint Depression Visibility Wind Speed Wind Dir Waves Ship Positions

MSC Divina

Last reported at 2014-Nov-23 01:33 UTC. Time now 2014-Nov-27 20:47 UTC.
Position N 25°43' W 080°03'.

Length 333 m; draft 8.7 m.

Type: Passenger vessel. MMSI: 373178000.

Date/timePositionNaut miles runAvg speedWind from/ knotsBaromVisibWave heightAir tempDewpointWater temp
2014-Nov-23 01:33N 25°43' W 080°03'8 6.2
2014-Nov-23 00:19N 25°47' W 080°10'0 0.0
2014-Nov-22 23:34N 25°47' W 080°10'0 0.0
2014-Nov-22 22:34N 25°47' W 080°10'0 0.0
2014-Nov-22 21:22N 25°47' W 080°10'0 0.0
2014-Nov-22 20:25N 25°47' W 080°10'0 0.0
2014-Nov-22 19:25N 25°47' W 080°10'0 0.0
2014-Nov-22 18:25N 25°47' W 080°10'0 0.0
2014-Nov-22 17:28N 25°47' W 080°10'0 0.0
2014-Nov-22 16:28N 25°47' W 080°10'0 0.0
2014-Nov-22 15:13N 25°47' W 080°10'0 0.0
2014-Nov-22 14:28N 25°47' W 080°10'0 0.0
2014-Nov-22 13:31N 25°47' W 080°10'0 0.0
2014-Nov-22 12:31N 25°47' W 080°10'0 0.0
2014-Nov-22 11:31N 25°47' W 080°10'0 0.3
2014-Nov-22 10:33N 25°47' W 080°11'5 5.5
2014-Nov-22 09:33N 25°46' W 080°05'1111.4
2014-Nov-22 08:33N 25°37' W 079°56'48915.8
2014-Nov-21 01:33N 20°37' W 086°56'6 6.1
2014-Nov-21 00:32N 20°31' W 086°57'0 0.0
2014-Nov-20 23:32N 20°31' W 086°57'0 0.0
2014-Nov-20 22:32N 20°31' W 086°57'0 0.0
2014-Nov-20 21:26N 20°31' W 086°57'0 0.0
2014-Nov-20 20:32N 20°31' W 086°57'0 0.0
2014-Nov-20 19:32N 20°31' W 086°57'0 0.0
2014-Nov-20 18:32N 20°31' W 086°57'0 0.0
2014-Nov-20 17:32N 20°31' W 086°57'0 0.0
2014-Nov-20 16:32N 20°31' W 086°57'0 0.0
2014-Nov-20 15:32N 20°31' W 086°57'4 4.1
2014-Nov-20 14:33N 20°30' W 087°02'  

Dump ship's entire track history